Harman, Virginia
Current Conditions -  °F | °C
As of 10:15 AM on Friday 19 Dec 2014 (Local Time) from KJFZ Reporting Station
Clear Clear  
Wind Chill: 25°   Ceiling: Unl
Heat Index: 31°   Visibility: 10mi
Dew Point: 21°   Wind: 6mph
Humidity: 65%   Direction: 320°NW
Pressure: 30.17"   Gusts: NA
Location:  37.29°N, 82.2°W
Report Text: KJFZ 191515Z AUTO 32005KT 10SM CLR 00/M06 A3017 RMK AO2 T10051063
Loading
Personal Weather Stations






























Interactive Weather Map New forecast layout! Learn more

10-Day Weather Forecast

Advertisements
Track Severe Weather on mobile